Time;durP1;ratioP1;P1;durP2;ratioP2;P2;SDS_P1;SDS_P2;PMS_P1;PMS_P2;Temp;Humidity;BMP_temperature;BMP_pressure;BME280_temperature;BME280_humidity;BME280_pressure;Samples;Min_cycle;Max_cycle;Signal;HPM_P1;HPM_P2
2023/07/02 00:03:47;;;;;;;;;;;;;;;24.97;39.44;99664.52;104727;1297;69901;-87
2023/07/02 00:06:13;;;;;;;;;;;;;;;24.97;39.52;99665.05;104678;1296;68171;-88
2023/07/02 00:08:40;;;;;;;;;;;;;;;24.97;39.59;99661.95;104582;1296;68640;-86
2023/07/02 00:11:06;;;;;;;;;;;;;;;24.97;39.69;99658.97;105005;1293;69980;-87
2023/07/02 00:13:31;;;;;;;;;;;;;;;24.96;39.74;99655.23;104613;1294;70049;-88
2023/07/02 00:15:58;;;;;;;;;;;;;;;24.96;39.93;99654.52;104451;1294;67682;-87
2023/07/02 00:18:33;;;;;;;;;;;;;;;24.96;39.83;99675.42;104806;1295;68164;-87
2023/07/02 00:21:04;;;;;;;;;;;;;;;24.96;39.92;99666.77;104516;1297;68091;-87
2023/07/02 00:23:30;;;;;;;;;;;;;;;24.96;39.78;99659.41;104465;1296;74323;-87
2023/07/02 00:25:58;;;;;;;;;;;;;;;24.96;39.92;99673.83;104465;1296;70495;-87
2023/07/02 00:28:24;;;;;;;;;;;;;;;24.96;39.78;99661.58;104539;1295;69919;-88
2023/07/02 00:30:49;;;;;;;;;;;;;;;24.96;40.10;99664.39;104354;1300;70044;-87
2023/07/02 00:33:15;;;;;;;;;;;;;;;24.96;40.07;99673.86;104548;1298;68470;-87
2023/07/02 00:35:41;;;;;;;;;;;;;;;24.96;39.81;99653.04;104613;1295;67951;-87
2023/07/02 00:38:07;;;;;;;;;;;;;;;24.95;39.81;99649.45;104787;1296;68172;-87
2023/07/02 00:40:32;;;;;;;;;;;;;;;24.95;40.05;99668.61;104570;1295;69932;-87
2023/07/02 00:42:58;;;;;;;;;;;;;;;24.95;40.16;99655.07;104466;1297;70051;-87
2023/07/02 00:45:26;;;;;;;;;;;;;;;24.95;40.21;99661.82;104538;1297;70090;-87
2023/07/02 00:47:53;;;;;;;;;;;;;;;24.95;40.39;99647.92;104595;1296;70017;-87
2023/07/02 00:50:19;;;;;;;;;;;;;;;24.94;40.10;99637.59;104521;1297;70351;-87
2023/07/02 00:52:44;;;;;;;;;;;;;;;24.94;40.15;99640.95;104635;1296;67673;-87
2023/07/02 00:55:13;;;;;;;;;;;;;;;24.94;40.25;99645.06;104486;1296;69355;-92
2023/07/02 00:57:40;;;;;;;;;;;;;;;24.93;40.38;99642.58;104553;1296;74416;-87
2023/07/02 01:00:06;;;;;;;;;;;;;;;24.93;40.55;99634.23;104541;1296;69937;-87
2023/07/02 01:02:32;;;;;;;;;;;;;;;24.93;40.30;99634.61;104536;1297;68097;-87
2023/07/02 01:04:59;;;;;;;;;;;;;;;24.92;40.58;99634.30;104715;1296;68978;-88
2023/07/02 01:07:25;;;;;;;;;;;;;;;24.92;40.52;99626.95;104607;1297;68270;-88
2023/07/02 01:09:51;;;;;;;;;;;;;;;24.91;40.54;99635.48;104508;1297;70010;-87
2023/07/02 01:12:17;;;;;;;;;;;;;;;24.91;40.64;99632.28;104771;1297;69933;-88
2023/07/02 01:14:48;;;;;;;;;;;;;;;24.91;40.56;99626.42;104772;1294;68835;-88
2023/07/02 01:17:13;;;;;;;;;;;;;;;24.91;40.68;99627.45;105009;1294;69863;-88
2023/07/02 01:19:44;;;;;;;;;;;;;;;24.90;40.73;99627.52;104957;1294;68587;-88
2023/07/02 01:22:09;;;;;;;;;;;;;;;24.91;40.71;99627.25;104814;1291;75245;-86
2023/07/02 01:24:41;;;;;;;;;;;;;;;24.90;40.60;99632.45;104692;1297;70018;-87
2023/07/02 01:27:07;;;;;;;;;;;;;;;24.90;40.71;99656.19;104617;1301;68819;-87
2023/07/02 01:29:36;;;;;;;;;;;;;;;24.90;40.67;99672.45;104805;1294;68047;-87
2023/07/02 01:32:02;;;;;;;;;;;;;;;24.90;40.56;99668.54;104821;1294;69849;-87
2023/07/02 01:34:28;;;;;;;;;;;;;;;24.90;40.93;99665.24;104702;1296;68742;-87
2023/07/02 01:39:22;;;;;;;;;;;;;;;24.90;40.93;99657.33;104896;1294;67680;-87
2023/07/02 01:41:52;;;;;;;;;;;;;;;24.89;40.80;99655.02;104622;1297;70107;-87
2023/07/02 01:44:18;;;;;;;;;;;;;;;24.90;40.96;99646.98;104813;1294;69965;-88
2023/07/02 01:46:44;;;;;;;;;;;;;;;24.89;41.10;99653.33;104752;1296;70060;-87
2023/07/02 01:49:10;;;;;;;;;;;;;;;24.89;41.09;99670.67;104793;1289;70145;-87
2023/07/02 01:51:35;;;;;;;;;;;;;;;24.88;41.15;99672.86;105546;1294;67341;-88
2023/07/02 01:54:01;;;;;;;;;;;;;;;24.88;41.13;99661.53;104935;1297;70189;-87
2023/07/02 01:56:28;;;;;;;;;;;;;;;24.89;41.13;99669.08;104873;1294;68525;-88
2023/07/02 01:58:53;;;;;;;;;;;;;;;24.89;41.11;99661.27;104669;1294;69860;-87
2023/07/02 02:01:19;;;;;;;;;;;;;;;24.88;41.22;99655.12;104824;1296;67954;-87
2023/07/02 02:06:17;;;;;;;;;;;;;;;24.87;41.35;99652.66;104996;1295;70101;-87
2023/07/02 02:08:43;;;;;;;;;;;;;;;24.87;41.48;99654.37;104827;1296;70000;-88
2023/07/02 02:11:08;;;;;;;;;;;;;;;24.87;41.40;99651.23;104880;1294;67905;-87
2023/07/02 02:13:34;;;;;;;;;;;;;;;24.87;41.31;99657.04;104726;1292;67786;-87
2023/07/02 02:16:00;;;;;;;;;;;;;;;24.87;41.44;99659.11;104687;1291;70275;-87
2023/07/02 02:18:25;;;;;;;;;;;;;;;24.87;41.31;99658.23;104632;1294;70076;-87
2023/07/02 02:20:51;;;;;;;;;;;;;;;24.87;41.58;99655.56;104527;1294;70001;-87
2023/07/02 02:23:17;;;;;;;;;;;;;;;24.87;41.72;99651.65;104597;1300;70024;-87
2023/07/02 02:25:42;;;;;;;;;;;;;;;24.87;41.48;99656.59;104916;1291;68217;-87
2023/07/02 02:28:08;;;;;;;;;;;;;;;24.86;41.50;99655.02;104709;1300;68059;-87
2023/07/02 02:30:34;;;;;;;;;;;;;;;24.87;41.67;99652.06;104485;1302;70088;-87
2023/07/02 02:32:59;;;;;;;;;;;;;;;24.86;41.75;99642.52;104746;1293;70061;-87
2023/07/02 02:35:25;;;;;;;;;;;;;;;24.86;41.82;99633.56;104469;1300;67645;-88
2023/07/02 02:37:51;;;;;;;;;;;;;;;24.86;41.82;99642.21;104581;1297;70244;-87
2023/07/02 02:40:16;;;;;;;;;;;;;;;24.86;41.73;99642.79;104704;1293;70004;-87
2023/07/02 02:42:49;;;;;;;;;;;;;;;24.86;41.73;99644.27;104611;1297;70163;-91
2023/07/02 02:45:15;;;;;;;;;;;;;;;24.86;41.78;99642.48;104330;1298;69959;-87
2023/07/02 02:47:40;;;;;;;;;;;;;;;24.86;42.04;99645.14;104527;1297;70033;-87
2023/07/02 02:50:06;;;;;;;;;;;;;;;24.85;42.11;99641.97;104444;1297;70125;-87
2023/07/02 02:52:32;;;;;;;;;;;;;;;24.85;41.96;99648.05;104556;1297;69908;-87
2023/07/02 02:54:58;;;;;;;;;;;;;;;24.85;41.93;99652.30;104591;1297;69840;-88
2023/07/02 02:57:23;;;;;;;;;;;;;;;24.85;42.08;99653.75;104450;1297;70012;-88
2023/07/02 02:59:49;;;;;;;;;;;;;;;24.86;42.06;99652.36;104750;1296;70005;-88
2023/07/02 03:02:15;;;;;;;;;;;;;;;24.85;41.95;99657.27;104531;1298;69914;-87
2023/07/02 03:04:41;;;;;;;;;;;;;;;24.85;42.02;99661.52;104652;1296;68018;-87
2023/07/02 03:07:07;;;;;;;;;;;;;;;24.85;42.04;99665.33;104746;1296;68066;-87
2023/07/02 03:12:12;;;;;;;;;;;;;;;24.85;42.28;99659.92;104420;1299;69922;-87
2023/07/02 03:14:37;;;;;;;;;;;;;;;24.85;42.16;99658.65;104603;1296;68085;-87
2023/07/02 03:17:03;;;;;;;;;;;;;;;24.85;42.35;99654.80;104503;1295;68781;-87
2023/07/02 03:19:29;;;;;;;;;;;;;;;24.85;42.28;99656.12;104827;1294;70005;-87
2023/07/02 03:21:54;;;;;;;;;;;;;;;24.85;42.35;99655.27;104678;1289;70199;-87
2023/07/02 03:24:20;;;;;;;;;;;;;;;24.85;42.34;99658.95;104318;1296;75432;-87
2023/07/02 03:26:46;;;;;;;;;;;;;;;24.85;42.51;99656.35;104488;1299;70100;-87
2023/07/02 03:29:12;;;;;;;;;;;;;;;24.85;42.45;99654.80;104453;1296;70066;-87
2023/07/02 03:31:37;;;;;;;;;;;;;;;24.84;42.52;99650.13;104741;1296;70215;-87
2023/07/02 03:34:04;;;;;;;;;;;;;;;24.85;42.31;99652.69;104564;1296;70044;-88
2023/07/02 03:39:03;;;;;;;;;;;;;;;24.85;42.50;99658.52;104429;1299;67385;-87
2023/07/02 03:41:28;;;;;;;;;;;;;;;24.85;42.65;99657.38;104642;1297;70041;-87
2023/07/02 03:43:54;;;;;;;;;;;;;;;24.84;42.67;99654.65;104664;1295;68188;-87
2023/07/02 03:46:23;;;;;;;;;;;;;;;24.85;42.30;99652.54;104567;1298;68075;-87
2023/07/02 03:48:48;;;;;;;;;;;;;;;24.85;42.44;99654.23;104509;1297;74404;-87
2023/07/02 03:51:14;;;;;;;;;;;;;;;24.85;42.73;99653.52;104452;1297;68596;-87
2023/07/02 03:53:40;;;;;;;;;;;;;;;24.85;42.87;99651.40;104526;1297;70098;-86
2023/07/02 03:56:06;;;;;;;;;;;;;;;24.85;42.75;99646.88;104533;1297;68105;-87
2023/07/02 03:58:32;;;;;;;;;;;;;;;24.85;42.76;99648.58;104748;1298;70115;-87
2023/07/02 04:00:57;;;;;;;;;;;;;;;24.85;42.69;99657.79;104705;1297;69971;-87
2023/07/02 04:06:31;;;;;;;;;;;;;;;24.85;42.71;99669.10;104423;1298;69857;-87
2023/07/02 04:08:57;;;;;;;;;;;;;;;24.84;42.73;99666.08;104261;1300;68805;-87
2023/07/02 04:11:22;;;;;;;;;;;;;;;24.84;42.71;99667.05;104511;1297;70011;-87
2023/07/02 04:13:48;;;;;;;;;;;;;;;24.84;42.87;99671.17;104593;1295;68224;-87
2023/07/02 04:16:14;;;;;;;;;;;;;;;24.84;42.92;99671.23;104310;1297;70014;-87
2023/07/02 04:18:39;;;;;;;;;;;;;;;24.84;43.01;99672.88;104408;1300;70080;-88
2023/07/02 04:21:05;;;;;;;;;;;;;;;24.84;43.08;99673.73;104304;1298;74600;-87
2023/07/02 04:23:30;;;;;;;;;;;;;;;24.85;42.94;99676.88;104332;1297;69663;-87
2023/07/02 04:25:56;;;;;;;;;;;;;;;24.84;43.21;99681.98;104384;1297;68053;-87
2023/07/02 04:28:21;;;;;;;;;;;;;;;24.84;43.06;99684.09;104493;1297;70049;-87
2023/07/02 04:30:49;;;;;;;;;;;;;;;24.84;43.31;99686.76;104528;1297;70137;-87
2023/07/02 04:35:51;;;;;;;;;;;;;;;24.85;43.03;99680.98;104738;1294;69944;-87
2023/07/02 04:38:16;;;;;;;;;;;;;;;24.85;43.14;99689.47;104836;1290;67875;-87
2023/07/02 04:40:44;;;;;;;;;;;;;;;24.84;43.20;99690.42;104590;1294;68396;-87
2023/07/02 04:43:10;;;;;;;;;;;;;;;24.84;43.38;99694.68;104627;1298;68093;-87
2023/07/02 04:45:39;;;;;;;;;;;;;;;24.85;43.39;99696.27;104601;1296;68275;-88
2023/07/02 04:48:05;;;;;;;;;;;;;;;24.85;43.33;99694.77;104382;1296;69819;-87
2023/07/02 04:50:30;;;;;;;;;;;;;;;24.85;43.40;99696.05;104441;1297;70054;-87
2023/07/02 04:52:56;;;;;;;;;;;;;;;24.85;43.28;99695.70;104491;1303;71735;-87
2023/07/02 04:55:22;;;;;;;;;;;;;;;24.85;43.19;99695.45;104475;1296;68110;-87
2023/07/02 04:57:47;;;;;;;;;;;;;;;24.86;43.23;99694.23;104532;1298;68740;-87
2023/07/02 05:02:53;;;;;;;;;;;;;;;24.86;43.58;99695.21;104335;1299;70000;-88
2023/07/02 05:05:18;;;;;;;;;;;;;;;24.86;43.35;99694.69;104345;1299;70090;-87
2023/07/02 05:07:44;;;;;;;;;;;;;;;24.86;43.58;99690.02;104570;1298;70033;-87
2023/07/02 05:10:10;;;;;;;;;;;;;;;24.85;43.61;99687.14;104559;1297;68054;-87
2023/07/02 05:12:36;;;;;;;;;;;;;;;24.86;43.75;99690.16;104409;1300;70024;-87
2023/07/02 05:15:01;;;;;;;;;;;;;;;24.86;43.47;99689.91;104407;1297;70037;-87
2023/07/02 05:17:27;;;;;;;;;;;;;;;24.86;43.94;99691.80;104351;1298;68535;-87
2023/07/02 05:19:52;;;;;;;;;;;;;;;24.87;43.77;99697.86;104270;1297;70033;-87
2023/07/02 05:22:18;;;;;;;;;;;;;;;24.86;43.74;99698.59;104311;1297;70035;-87
2023/07/02 05:24:44;;;;;;;;;;;;;;;24.86;43.86;99695.41;104530;1297;67951;-88
2023/07/02 05:27:09;;;;;;;;;;;;;;;24.86;43.70;99694.84;104563;1296;68038;-87
2023/07/02 05:29:35;;;;;;;;;;;;;;;24.86;43.92;99696.33;104413;1297;70135;-87
2023/07/02 05:32:01;;;;;;;;;;;;;;;24.87;43.88;99693.65;104421;1297;70094;-87
2023/07/02 05:34:26;;;;;;;;;;;;;;;24.87;43.94;99698.92;104475;1297;69972;-87
2023/07/02 05:36:52;;;;;;;;;;;;;;;24.87;43.88;99698.66;104366;1304;70027;-87
2023/07/02 05:39:17;;;;;;;;;;;;;;;24.88;44.05;99699.27;104520;1296;68342;-88
2023/07/02 05:41:43;;;;;;;;;;;;;;;24.88;43.96;99701.11;104203;1304;70117;-87
2023/07/02 05:44:08;;;;;;;;;;;;;;;24.88;43.91;99697.88;104315;1297;69957;-88
2023/07/02 05:46:34;;;;;;;;;;;;;;;24.89;44.05;99700.06;104425;1297;68957;-87
2023/07/02 05:48:59;;;;;;;;;;;;;;;24.88;44.18;99696.94;104427;1297;70056;-87
2023/07/02 05:51:25;;;;;;;;;;;;;;;24.89;44.20;99700.15;104570;1302;68049;-88
2023/07/02 05:53:51;;;;;;;;;;;;;;;24.90;44.10;99704.57;104441;1296;71623;-87
2023/07/02 05:56:16;;;;;;;;;;;;;;;24.90;44.11;99703.06;104565;1296;67664;-88
2023/07/02 05:58:42;;;;;;;;;;;;;;;24.90;44.17;99702.23;104441;1298;70078;-87
2023/07/02 06:01:08;;;;;;;;;;;;;;;24.91;44.11;99704.69;104614;1297;69971;-87
2023/07/02 06:03:33;;;;;;;;;;;;;;;24.92;44.26;99706.02;104681;1296;67958;-87
2023/07/02 06:08:33;;;;;;;;;;;;;;;24.93;44.28;99712.65;104365;1299;68730;-88
2023/07/02 06:10:58;;;;;;;;;;;;;;;24.93;44.34;99717.33;104310;1300;68221;-89
2023/07/02 06:13:24;;;;;;;;;;;;;;;24.94;44.38;99716.27;104575;1297;68875;-88
2023/07/02 06:15:49;;;;;;;;;;;;;;;24.94;44.48;99712.88;104628;1297;67958;-88
2023/07/02 06:18:17;;;;;;;;;;;;;;;24.95;44.29;99712.65;104688;1293;68107;-88
2023/07/02 06:20:43;;;;;;;;;;;;;;;24.96;44.37;99713.71;104496;1295;69983;-88
2023/07/02 06:23:09;;;;;;;;;;;;;;;24.96;44.28;99710.24;104642;1294;67751;-87
2023/07/02 06:25:34;;;;;;;;;;;;;;;24.97;44.28;99710.90;104736;1294;70146;-88
2023/07/02 06:28:00;;;;;;;;;;;;;;;24.98;44.25;99707.27;104673;1300;69967;-87
2023/07/02 06:30:26;;;;;;;;;;;;;;;24.99;44.31;99708.38;104705;1295;68157;-88
2023/07/02 06:36:04;;;;;;;;;;;;;;;24.99;44.34;99706.73;104496;1297;70026;-89
2023/07/02 06:38:32;;;;;;;;;;;;;;;25.00;44.30;99705.81;104417;1297;82865;-87
2023/07/02 06:40:58;;;;;;;;;;;;;;;25.01;44.35;99706.05;104781;1295;69931;-88
2023/07/02 06:43:24;;;;;;;;;;;;;;;25.01;44.22;99705.08;104686;1293;68372;-88
2023/07/02 06:45:49;;;;;;;;;;;;;;;25.01;44.23;99704.39;104559;1296;70007;-87
2023/07/02 06:48:17;;;;;;;;;;;;;;;25.02;44.39;99702.73;104805;1290;70039;-87
2023/07/02 06:53:24;;;;;;;;;;;;;;;25.02;44.60;99701.28;104424;1299;70083;-88
2023/07/02 06:55:49;;;;;;;;;;;;;;;25.04;44.44;99701.08;104643;1296;69962;-88
2023/07/02 06:58:15;;;;;;;;;;;;;;;25.04;44.40;99704.97;104790;1297;70179;-88
2023/07/02 07:00:41;;;;;;;;;;;;;;;25.05;44.58;99707.83;104875;1293;68281;-88
2023/07/02 07:03:07;;;;;;;;;;;;;;;25.05;44.31;99708.30;104733;1290;69928;-88
2023/07/02 07:05:32;;;;;;;;;;;;;;;25.06;44.42;99711.35;104609;1297;70001;-89
2023/07/02 07:08:03;;;;;;;;;;;;;;;25.07;44.29;99713.13;105137;1296;558807;-93
2023/07/02 07:10:33;;;;;;;;;;;;;;;25.08;44.46;99711.77;104837;1296;69891;-88
2023/07/02 07:13:00;;;;;;;;;;;;;;;25.09;44.46;99715.51;104860;1293;74423;-87
2023/07/02 07:15:25;;;;;;;;;;;;;;;25.10;44.51;99714.20;104508;1295;70048;-88
2023/07/02 07:17:51;;;;;;;;;;;;;;;25.10;44.50;99713.55;104626;1297;69638;-89
2023/07/02 07:20:16;;;;;;;;;;;;;;;25.11;44.43;99712.80;104482;1297;68180;-88
2023/07/02 07:22:42;;;;;;;;;;;;;;;25.12;44.26;99711.60;104839;1295;69959;-88
2023/07/02 07:25:08;;;;;;;;;;;;;;;25.13;44.63;99714.36;104524;1296;67658;-88
2023/07/02 07:27:33;;;;;;;;;;;;;;;25.14;44.61;99711.92;104526;1297;68399;-88
2023/07/02 07:29:59;;;;;;;;;;;;;;;25.14;44.54;99708.86;104613;1294;70264;-88
2023/07/02 07:32:24;;;;;;;;;;;;;;;25.15;44.65;99710.19;104544;1297;70027;-88
2023/07/02 07:34:53;;;;;;;;;;;;;;;25.16;44.38;99710.27;104712;1294;69974;-88
2023/07/02 07:37:19;;;;;;;;;;;;;;;25.16;44.65;99709.77;104620;1295;70072;-87
2023/07/02 07:39:44;;;;;;;;;;;;;;;25.16;44.39;99711.05;104621;1294;70020;-88
2023/07/02 07:42:10;;;;;;;;;;;;;;;25.18;44.57;99713.75;104589;1294;70056;-88
2023/07/02 07:44:44;;;;;;;;;;;;;;;25.18;44.56;99711.48;104748;1294;69999;-91
2023/07/02 07:47:09;;;;;;;;;;;;;;;25.18;44.40;99710.52;104537;1294;68024;-88
2023/07/02 07:49:35;;;;;;;;;;;;;;;25.19;44.49;99709.59;104574;1294;70284;-88
2023/07/02 07:52:00;;;;;;;;;;;;;;;25.20;44.60;99705.71;104642;1294;70096;-88
2023/07/02 07:54:26;;;;;;;;;;;;;;;25.20;44.64;99703.75;104567;1294;68924;-88
2023/07/02 07:56:52;;;;;;;;;;;;;;;25.20;44.64;99705.37;104534;1297;69975;-88
2023/07/02 07:59:17;;;;;;;;;;;;;;;25.21;44.66;99708.96;104427;1295;68153;-88
2023/07/02 08:01:43;;;;;;;;;;;;;;;25.22;44.52;99712.14;104721;1294;68881;-88
2023/07/02 08:04:08;;;;;;;;;;;;;;;25.22;44.72;99711.02;104774;1295;67884;-88
2023/07/02 08:06:34;;;;;;;;;;;;;;;25.23;44.59;99716.90;104729;1295;70031;-88
2023/07/02 08:09:00;;;;;;;;;;;;;;;25.23;44.53;99711.50;104674;1295;70195;-88
2023/07/02 08:14:08;;;;;;;;;;;;;;;25.24;44.55;99716.30;104673;1296;70342;-88
2023/07/02 08:16:34;;;;;;;;;;;;;;;25.25;44.38;99716.64;104650;1300;69958;-88
2023/07/02 08:19:00;;;;;;;;;;;;;;;25.25;44.51;99710.73;104566;1296;69853;-88
2023/07/02 08:21:26;;;;;;;;;;;;;;;25.26;44.66;99712.23;104502;1293;482206;-88
2023/07/02 08:23:51;;;;;;;;;;;;;;;25.26;44.61;99712.38;104511;1297;68153;-88
2023/07/02 08:26:17;;;;;;;;;;;;;;;25.27;44.63;99715.86;104466;1297;70043;-88
2023/07/02 08:28:42;;;;;;;;;;;;;;;25.27;44.67;99712.95;104586;1297;70084;-88
2023/07/02 08:31:08;;;;;;;;;;;;;;;25.28;44.53;99717.14;104872;1294;70193;-88
2023/07/02 08:33:34;;;;;;;;;;;;;;;25.29;44.52;99720.45;104691;1297;70048;-88
2023/07/02 08:36:00;;;;;;;;;;;;;;;25.28;44.71;99713.89;104695;1297;68032;-88
2023/07/02 08:41:01;;;;;;;;;;;;;;;25.30;44.59;99715.22;104505;1297;69830;-88
2023/07/02 08:43:29;;;;;;;;;;;;;;;25.31;44.55;99715.26;104680;1295;70102;-88
2023/07/02 08:45:55;;;;;;;;;;;;;;;25.31;44.49;99716.96;104830;1294;69990;-88
2023/07/02 08:48:23;;;;;;;;;;;;;;;25.32;44.55;99722.86;104799;1296;68093;-88
2023/07/02 08:50:49;;;;;;;;;;;;;;;25.31;44.40;99724.81;105006;1295;75321;-88
2023/07/02 08:53:33;;;;;;;;;;;;;;;25.32;44.60;99721.91;104728;1294;70077;-89
2023/07/02 08:56:05;;;;;;;;;;;;;;;25.33;44.41;99723.09;104622;1297;68334;-88
2023/07/02 08:58:31;;;;;;;;;;;;;;;25.33;44.34;99725.81;104848;1297;68161;-88
2023/07/02 09:01:09;;;;;;;;;;;;;;;25.33;44.33;99726.56;104917;1295;68836;-88
2023/07/02 09:03:37;;;;;;;;;;;;;;;25.34;44.49;99720.78;104797;1296;75244;-88
2023/07/02 09:06:03;;;;;;;;;;;;;;;25.34;44.28;99719.28;104900;1296;69963;-88
2023/07/02 09:08:34;;;;;;;;;;;;;;;25.34;44.49;99718.86;104583;1290;68948;31
2023/07/02 09:26:27;;;;;;;;;;;;;;;25.36;44.21;99710.27;104662;1297;69940;-88
2023/07/02 09:29:00;;;;;;;;;;;;;;;25.36;44.27;99715.20;104725;1297;68430;-87
2023/07/02 09:31:25;;;;;;;;;;;;;;;25.36;44.26;99712.48;104764;1296;74568;-88
2023/07/02 09:33:51;;;;;;;;;;;;;;;25.35;44.34;99706.10;104808;1297;70059;-88
2023/07/02 09:36:16;;;;;;;;;;;;;;;25.35;44.13;99707.61;104626;1297;70096;-87
2023/07/02 09:38:42;;;;;;;;;;;;;;;25.35;44.31;99704.66;104706;1297;67896;-87
2023/07/02 09:41:07;;;;;;;;;;;;;;;25.35;44.31;99710.59;104482;1297;70073;-88
2023/07/02 09:43:33;;;;;;;;;;;;;;;25.35;44.43;99711.96;104459;1296;68096;-87
2023/07/02 09:45:59;;;;;;;;;;;;;;;25.34;44.23;99712.16;104444;1297;69900;-88
2023/07/02 09:48:28;;;;;;;;;;;;;;;25.34;44.41;99710.48;104349;1297;69943;-89
2023/07/02 09:50:54;;;;;;;;;;;;;;;25.34;44.26;99713.15;104598;1296;69956;-89
2023/07/02 09:53:19;;;;;;;;;;;;;;;25.34;44.25;99711.77;104575;1297;68153;-87
2023/07/02 09:55:45;;;;;;;;;;;;;;;25.34;44.42;99715.13;104295;1297;68435;-87
2023/07/02 09:58:11;;;;;;;;;;;;;;;25.33;44.25;99710.20;104275;1297;68712;-89
2023/07/02 10:00:37;;;;;;;;;;;;;;;25.34;44.41;99712.17;104484;1296;70032;-89
2023/07/02 10:03:03;;;;;;;;;;;;;;;25.34;44.17;99711.72;104476;1298;70145;-89
2023/07/02 10:05:32;;;;;;;;;;;;;;;25.34;44.23;99710.29;104496;1297;70106;-90
2023/07/02 10:07:58;;;;;;;;;;;;;;;25.34;44.17;99711.58;104349;1297;70078;-89
2023/07/02 10:10:30;;;;;;;;;;;;;;;25.33;44.23;99712.25;104621;1296;70023;-90
2023/07/02 10:12:55;;;;;;;;;;;;;;;25.33;43.98;99711.98;104658;1296;69863;-89
2023/07/02 10:15:24;;;;;;;;;;;;;;;25.34;44.21;99710.59;104696;1297;68141;-89
2023/07/02 10:17:59;;;;;;;;;;;;;;;25.34;44.20;99711.58;104555;1298;69980;-89
2023/07/02 10:20:33;;;;;;;;;;;;;;;25.33;44.18;99714.24;104586;1291;69851;-88
2023/07/02 10:25:39;;;;;;;;;;;;;;;25.33;44.20;99714.93;104287;1300;69915;-88
2023/07/02 10:28:19;;;;;;;;;;;;;;;25.33;44.07;99717.05;104527;1296;75130;-88
2023/07/02 10:30:44;;;;;;;;;;;;;;;25.33;44.28;99715.86;104691;1298;72603;-88
2023/07/02 10:33:14;;;;;;;;;;;;;;;25.33;44.32;99714.79;104571;1296;68079;-88
2023/07/02 10:35:44;;;;;;;;;;;;;;;25.33;44.19;99715.61;104737;1293;68656;-88
2023/07/02 10:38:20;;;;;;;;;;;;;;;25.33;44.28;99716.38;104652;1297;75339;-88
2023/07/02 10:40:45;;;;;;;;;;;;;;;25.34;44.29;99718.67;104335;1297;75431;-87
2023/07/02 10:43:11;;;;;;;;;;;;;;;25.34;44.46;99712.63;104465;1300;70086;-88
2023/07/02 10:45:37;;;;;;;;;;;;;;;25.35;44.31;99708.64;104515;1295;70100;-88
2023/07/02 10:48:03;;;;;;;;;;;;;;;25.36;44.47;99701.58;104533;1296;68184;-87
2023/07/02 10:50:29;;;;;;;;;;;;;;;25.36;44.37;99703.46;104750;1294;69990;-88
2023/07/02 10:55:35;;;;;;;;;;;;;;;25.37;44.59;99692.89;104558;1297;67859;-88
2023/07/02 10:58:05;;;;;;;;;;;;;;;25.37;44.51;99692.59;104749;1295;68023;-88
2023/07/02 11:00:31;;;;;;;;;;;;;;;25.37;44.74;99690.10;104931;1294;70024;-88
2023/07/02 11:02:57;;;;;;;;;;;;;;;25.38;44.59;99690.66;104811;1297;69918;-87
2023/07/02 11:05:22;;;;;;;;;;;;;;;25.38;44.60;99688.13;104809;1295;70140;-87
2023/07/02 11:10:22;;;;;;;;;;;;;;;25.39;44.81;99685.23;104796;1298;69883;-87
2023/07/02 11:12:47;;;;;;;;;;;;;;;25.38;44.69;99685.20;104937;1294;70022;-87
2023/07/02 11:15:14;;;;;;;;;;;;;;;25.38;44.81;99687.45;104812;1296;68045;-88
2023/07/02 11:17:41;;;;;;;;;;;;;;;25.38;44.88;99684.36;104542;1297;70024;-87
2023/07/02 11:20:08;;;;;;;;;;;;;;;25.38;45.07;99687.92;104558;1297;70037;-88
2023/07/02 11:22:34;;;;;;;;;;;;;;;25.38;45.08;99690.17;104439;1297;70078;-88
2023/07/02 11:25:13;;;;;;;;;;;;;;;25.39;45.21;99686.82;104421;1297;69098;-88
2023/07/02 11:27:38;;;;;;;;;;;;;;;25.39;45.13;99681.72;104684;1296;69824;-87
2023/07/02 11:30:04;;;;;;;;;;;;;;;25.39;45.11;99683.46;104659;1296;67745;-87
2023/07/02 11:32:30;;;;;;;;;;;;;;;25.39;45.11;99684.48;104727;1293;70069;-87
2023/07/02 11:34:56;;;;;;;;;;;;;;;25.39;45.19;99686.02;104665;1297;69867;-89
2023/07/02 11:37:21;;;;;;;;;;;;;;;25.40;45.32;99684.66;104082;1297;68183;-88
2023/07/02 11:39:47;;;;;;;;;;;;;;;25.40;45.28;99680.98;104417;1299;68563;-87
2023/07/02 11:42:13;;;;;;;;;;;;;;;25.40;45.08;99678.73;104293;1300;69812;-87
2023/07/02 11:44:39;;;;;;;;;;;;;;;25.40;45.37;99678.89;104562;1297;67796;-88
2023/07/02 11:47:05;;;;;;;;;;;;;;;25.41;45.23;99678.09;104402;1297;70017;-89
2023/07/02 11:49:30;;;;;;;;;;;;;;;25.41;45.28;99675.68;104231;1297;68841;-89
2023/07/02 11:51:56;;;;;;;;;;;;;;;25.41;45.45;99681.65;104602;1298;68116;-87
2023/07/02 11:54:22;;;;;;;;;;;;;;;25.41;45.40;99681.05;104566;1295;70245;-88
2023/07/02 11:56:47;;;;;;;;;;;;;;;25.41;45.65;99679.41;104660;1294;68812;-87
2023/07/02 11:59:13;;;;;;;;;;;;;;;25.42;45.63;99675.95;104649;1295;70160;-88
2023/07/02 12:04:18;;;;;;;;;;;;;;;25.42;45.41;99673.16;104375;1297;69912;-88
2023/07/02 12:06:44;;;;;;;;;;;;;;;25.43;45.59;99675.90;104579;1296;68138;-88
2023/07/02 12:09:13;;;;;;;;;;;;;;;25.43;45.70;99671.93;104417;1303;68217;-87
2023/07/02 12:11:38;;;;;;;;;;;;;;;25.43;45.49;99673.36;104474;1297;70128;-88
2023/07/02 12:14:04;;;;;;;;;;;;;;;25.43;45.52;99676.66;104396;1298;69933;-88
2023/07/02 12:16:30;;;;;;;;;;;;;;;25.43;45.45;99676.80;104349;1300;70140;-88
2023/07/02 12:18:55;;;;;;;;;;;;;;;25.44;45.54;99673.71;104705;1296;70033;-87
2023/07/02 12:21:21;;;;;;;;;;;;;;;25.44;45.61;99672.58;104527;1297;68226;-87
2023/07/02 12:23:47;;;;;;;;;;;;;;;25.44;45.58;99674.63;104610;1302;68934;-87
2023/07/02 12:26:12;;;;;;;;;;;;;;;25.45;45.68;99674.36;104488;1297;68295;-87
2023/07/02 12:28:45;;;;;;;;;;;;;;;25.45;45.48;99679.35;104382;1297;70304;-91
2023/07/02 12:31:12;;;;;;;;;;;;;;;25.45;45.50;99678.77;104432;1297;70027;-87
2023/07/02 12:33:39;;;;;;;;;;;;;;;25.45;45.37;99679.68;104507;1297;68639;-87
2023/07/02 12:36:05;;;;;;;;;;;;;;;25.46;45.48;99683.13;104449;1297;74153;-87
2023/07/02 12:38:31;;;;;;;;;;;;;;;25.46;45.48;99682.63;104849;1296;70091;-88
2023/07/02 12:40:57;;;;;;;;;;;;;;;25.46;45.52;99680.94;104844;1289;67886;-88
2023/07/02 12:43:23;;;;;;;;;;;;;;;25.46;45.40;99679.09;104486;1297;70110;-88
2023/07/02 12:45:49;;;;;;;;;;;;;;;25.46;45.51;99680.02;104703;1296;70084;-88
2023/07/02 12:48:15;;;;;;;;;;;;;;;25.46;45.55;99685.39;104629;1297;70051;-88
2023/07/02 12:50:41;;;;;;;;;;;;;;;25.46;45.29;99682.70;104972;1295;68500;-88
2023/07/02 12:53:07;;;;;;;;;;;;;;;25.46;45.41;99683.84;104850;1292;69881;-88
2023/07/02 12:55:37;;;;;;;;;;;;;;;25.45;45.27;99684.22;104416;1299;67977;-91
2023/07/02 12:58:03;;;;;;;;;;;;;;;25.45;45.39;99679.77;104469;1297;74340;-87
2023/07/02 13:00:28;;;;;;;;;;;;;;;25.45;45.53;99678.90;104801;1296;68471;-87
2023/07/02 13:02:54;;;;;;;;;;;;;;;25.45;45.34;99681.46;104852;1296;68221;-88
2023/07/02 13:05:20;;;;;;;;;;;;;;;25.44;45.17;99675.55;104603;1296;68160;-88
2023/07/02 13:07:45;;;;;;;;;;;;;;;25.44;45.23;99679.01;104787;1290;70035;-88
2023/07/02 13:10:11;;;;;;;;;;;;;;;25.44;45.33;99678.85;104646;1297;75535;-88
2023/07/02 13:12:37;;;;;;;;;;;;;;;25.44;45.35;99676.02;104801;1292;68027;-88
2023/07/02 13:15:03;;;;;;;;;;;;;;;25.44;45.50;99675.04;104583;1302;70015;-88
2023/07/02 13:17:28;;;;;;;;;;;;;;;25.45;45.30;99677.64;104802;1295;67798;-88
2023/07/02 13:19:56;;;;;;;;;;;;;;;25.45;45.01;99676.16;104834;1295;68189;-87
2023/07/02 13:22:37;;;;;;;;;;;;;;;25.46;45.13;99670.31;104492;1295;70092;-90
2023/07/02 13:25:03;;;;;;;;;;;;;;;25.48;45.38;99670.02;104671;1297;69907;-88
2023/07/02 13:27:29;;;;;;;;;;;;;;;25.48;45.28;99668.59;104842;1297;68126;-88
2023/07/02 13:29:55;;;;;;;;;;;;;;;25.48;45.39;99665.07;104772;1293;67986;-87
2023/07/02 13:32:20;;;;;;;;;;;;;;;25.49;45.25;99660.63;104772;1297;70206;-88